createdAt,value
2022-11-02T00:01:43.013Z,101222.09
2022-11-02T00:04:15.623Z,101219.55
2022-11-02T00:06:47.453Z,101223.21
2022-11-02T00:09:20.092Z,101229.06
2022-11-02T00:11:52.343Z,101225.79
2022-11-02T00:14:24.429Z,101230.70
2022-11-02T00:16:56.595Z,101226.30
2022-11-02T00:19:28.659Z,101232.29
2022-11-02T00:22:02.712Z,101232.38
2022-11-02T00:24:37.822Z,101231.45
2022-11-02T00:27:11.491Z,101232.09
2022-11-02T00:29:44.033Z,101234.98
2022-11-02T00:32:18.057Z,101236.63
2022-11-02T00:34:52.332Z,101238.30
2022-11-02T00:37:24.161Z,101245.98
2022-11-02T00:39:55.986Z,101247.59
2022-11-02T00:42:30.586Z,101248.40
2022-11-02T00:45:02.914Z,101248.11
2022-11-02T00:47:34.862Z,101251.27
2022-11-02T00:50:09.362Z,101245.43
2022-11-02T00:52:43.488Z,101244.42
2022-11-02T00:55:18.213Z,101246.58
2022-11-02T00:57:50.193Z,101244.23
2022-11-02T01:00:25.597Z,101246.46
2022-11-02T01:03:00.259Z,101243.17
2022-11-02T01:05:37.530Z,101245.95
2022-11-02T01:08:09.746Z,101247.58
2022-11-02T01:10:45.513Z,101249.98
2022-11-02T01:13:23.721Z,101250.37
2022-11-02T01:15:55.654Z,101249.45
2022-11-02T01:18:32.490Z,101247.08
2022-11-02T01:21:04.813Z,101250.30
2022-11-02T01:23:38.186Z,101250.35
2022-11-02T01:26:11.917Z,101257.41
2022-11-02T01:28:47.469Z,101254.53
2022-11-02T01:31:19.266Z,101255.45
2022-11-02T01:33:51.244Z,101256.63
2022-11-02T01:39:00.888Z,101262.73
2022-11-02T01:41:35.460Z,101260.94
2022-11-02T01:44:29.363Z,101262.30
2022-11-02T01:47:06.545Z,101268.50
2022-11-02T01:49:49.644Z,101265.56
2022-11-02T01:52:26.862Z,101260.88
2022-11-02T01:55:06.553Z,101255.11
2022-11-02T01:57:56.976Z,101250.33
2022-11-02T02:00:31.508Z,101255.77
2022-11-02T02:03:09.008Z,101252.66
2022-11-02T02:05:46.514Z,101255.23
2022-11-02T02:08:28.221Z,101256.84
2022-11-02T02:11:00.673Z,101256.25
2022-11-02T02:13:33.313Z,101257.00
2022-11-02T02:16:17.375Z,101252.84
2022-11-02T02:19:00.257Z,101258.45
2022-11-02T02:21:43.266Z,101264.30
2022-11-02T02:24:32.238Z,101266.30
2022-11-02T02:27:17.368Z,101264.15
2022-11-02T02:30:03.240Z,101265.80
2022-11-02T02:32:42.289Z,101265.08
2022-11-02T02:35:25.784Z,101262.84
2022-11-02T02:38:02.178Z,101265.33
2022-11-02T02:40:39.747Z,101271.00
2022-11-02T02:43:17.871Z,101276.10
2022-11-02T02:45:56.763Z,101277.98
2022-11-02T02:48:29.652Z,101284.72
2022-11-02T02:51:08.428Z,101285.64
2022-11-02T02:53:45.587Z,101288.59
2022-11-02T02:56:24.562Z,101285.95
2022-11-02T02:59:03.547Z,101287.63
2022-11-02T03:01:40.780Z,101291.95
2022-11-02T03:04:16.329Z,101291.52
2022-11-02T03:06:56.076Z,101291.90
2022-11-02T03:09:33.814Z,101294.27
2022-11-02T03:15:21.618Z,101302.63
2022-11-02T03:18:07.650Z,101302.02
2022-11-02T03:20:54.501Z,101300.34
2022-11-02T03:23:30.940Z,101299.05
2022-11-02T03:26:09.595Z,101295.73
2022-11-02T03:28:58.067Z,101298.58
2022-11-02T03:31:47.316Z,101295.20
2022-11-02T03:34:29.900Z,101289.86
2022-11-02T03:39:47.052Z,101290.73
2022-11-02T03:42:24.664Z,101293.45
2022-11-02T03:45:02.301Z,101293.98
2022-11-02T03:47:38.039Z,101288.75
2022-11-02T03:50:19.994Z,101289.12
2022-11-02T03:52:58.751Z,101290.23
2022-11-02T03:55:40.093Z,101290.36
2022-11-02T03:58:13.946Z,101297.58
2022-11-02T04:00:53.395Z,101292.85
2022-11-02T04:03:26.355Z,101291.17
2022-11-02T04:05:58.847Z,101289.97
2022-11-02T04:08:37.865Z,101295.03
2022-11-02T04:11:30.454Z,101297.30
2022-11-02T04:14:27.939Z,101304.70
2022-11-02T04:17:14.155Z,101308.84
2022-11-02T04:19:50.509Z,101311.59
2022-11-02T04:22:41.648Z,101313.23
2022-11-02T04:25:21.684Z,101309.14
2022-11-02T04:28:13.705Z,101306.52
2022-11-02T04:30:50.412Z,101306.98
2022-11-02T04:33:37.561Z,101309.23
2022-11-02T04:36:15.080Z,101308.58
2022-11-02T04:38:48.085Z,101317.15
2022-11-02T04:41:45.361Z,101313.66
2022-11-02T04:44:24.923Z,101310.96
2022-11-02T04:47:18.868Z,101301.48
2022-11-02T04:49:50.661Z,101301.76
2022-11-02T04:52:25.544Z,101304.23
2022-11-02T04:54:58.889Z,101301.76
2022-11-02T04:57:31.232Z,101306.77
2022-11-02T05:00:05.238Z,101306.20
2022-11-02T05:02:37.779Z,101308.52
2022-11-02T05:05:12.816Z,101302.65
2022-11-02T05:07:46.356Z,101302.92
2022-11-02T05:10:18.560Z,101305.98
2022-11-02T05:12:57.346Z,101313.79
2022-11-02T05:15:30.643Z,101315.80
2022-11-02T05:18:03.344Z,101318.81
2022-11-02T05:20:35.717Z,101320.36
2022-11-02T05:23:08.454Z,101315.70
2022-11-02T05:25:45.391Z,101317.63
2022-11-02T05:28:18.107Z,101313.86
2022-11-02T05:30:53.230Z,101315.02
2022-11-02T05:33:30.269Z,101320.48
2022-11-02T05:36:03.601Z,101322.32
2022-11-02T05:41:16.846Z,101325.25
2022-11-02T05:43:48.848Z,101326.64
2022-11-02T05:46:21.012Z,101329.02
2022-11-02T05:48:53.247Z,101328.55
2022-11-02T05:51:24.969Z,101333.77
2022-11-02T05:53:56.792Z,101338.42
2022-11-02T05:56:29.035Z,101338.92
2022-11-02T05:59:01.153Z,101341.08
2022-11-02T06:01:33.471Z,101341.88
2022-11-02T06:04:05.672Z,101342.78
2022-11-02T06:06:37.723Z,101343.30
2022-11-02T06:09:10.825Z,101349.73
2022-11-02T06:11:45.346Z,101353.30
2022-11-02T06:14:17.308Z,101353.65
2022-11-02T06:16:49.184Z,101356.86
2022-11-02T06:19:21.310Z,101360.13
2022-11-02T06:21:53.833Z,101361.00
2022-11-02T06:24:26.012Z,101361.08
2022-11-02T06:26:57.817Z,101360.66
2022-11-02T06:29:31.716Z,101362.56
2022-11-02T06:32:03.796Z,101361.82
2022-11-02T06:34:35.838Z,101355.79
2022-11-02T06:37:10.145Z,101356.34
2022-11-02T06:39:42.210Z,101353.42
2022-11-02T06:42:14.174Z,101350.59
2022-11-02T06:44:45.981Z,101344.54
2022-11-02T06:47:19.922Z,101345.87
2022-11-02T06:49:52.107Z,101346.42
2022-11-02T06:52:23.897Z,101345.73
2022-11-02T06:54:56.366Z,101350.29
2022-11-02T06:57:30.108Z,101350.61
2022-11-02T07:00:05.155Z,101345.36
2022-11-02T07:02:37.216Z,101346.70
2022-11-02T07:05:09.649Z,101342.77
2022-11-02T07:07:41.685Z,101343.03
2022-11-02T07:10:14.610Z,101343.21
2022-11-02T07:12:46.398Z,101341.27
2022-11-02T07:15:18.392Z,101340.18
2022-11-02T07:17:51.048Z,101342.66
2022-11-02T07:20:23.108Z,101343.19
2022-11-02T07:22:59.285Z,101348.86
2022-11-02T07:25:34.051Z,101352.36
2022-11-02T07:28:06.576Z,101352.96
2022-11-02T07:30:38.437Z,101348.80
2022-11-02T07:33:10.226Z,101350.29
2022-11-02T07:35:47.667Z,101351.28
2022-11-02T07:38:22.203Z,101355.45
2022-11-02T07:40:54.329Z,101353.55
2022-11-02T07:43:26.508Z,101348.91
2022-11-02T07:46:08.498Z,101346.16
2022-11-02T07:48:41.087Z,101347.77
2022-11-02T07:51:13.378Z,101349.24
2022-11-02T07:53:46.612Z,101350.52
2022-11-02T07:56:24.162Z,101350.17
2022-11-02T07:58:56.024Z,101350.90
2022-11-02T08:01:29.109Z,101349.16
2022-11-02T08:04:00.944Z,101350.31
2022-11-02T08:06:32.811Z,101352.31
2022-11-02T08:09:04.708Z,101355.79
2022-11-02T08:11:59.155Z,101355.48
2022-11-02T08:14:31.377Z,101355.46
2022-11-02T08:17:03.196Z,101354.92
2022-11-02T08:19:35.094Z,101354.34
2022-11-02T08:22:07.034Z,101351.71
2022-11-02T08:24:44.098Z,101353.04
2022-11-02T08:27:17.212Z,101347.55
2022-11-02T08:29:49.266Z,101353.99
2022-11-02T08:32:21.135Z,101350.45
2022-11-02T08:34:52.968Z,101349.02
2022-11-02T08:37:25.057Z,101350.74
2022-11-02T08:39:56.915Z,101350.95
2022-11-02T08:42:28.730Z,101348.11
2022-11-02T08:45:00.593Z,101351.51
2022-11-02T08:47:32.399Z,101354.24
2022-11-02T08:50:07.039Z,101353.25
2022-11-02T08:52:40.783Z,101352.66
2022-11-02T08:55:13.740Z,101353.43
2022-11-02T08:57:49.431Z,101358.06
2022-11-02T09:00:23.486Z,101353.58
2022-11-02T09:03:03.850Z,101355.65
2022-11-02T09:05:37.959Z,101357.64
2022-11-02T09:08:12.464Z,101358.25
2022-11-02T09:10:45.245Z,101361.58
2022-11-02T09:13:25.408Z,101356.44
2022-11-02T09:16:03.530Z,101350.48
2022-11-02T09:18:35.454Z,101357.92
2022-11-02T09:21:10.239Z,101360.94
2022-11-02T09:23:44.984Z,101359.42
2022-11-02T09:26:22.845Z,101359.55
2022-11-02T09:28:54.770Z,101359.67
2022-11-02T09:31:29.375Z,101362.66
2022-11-02T09:34:01.367Z,101359.06
2022-11-02T09:36:33.409Z,101355.89
2022-11-02T09:39:05.260Z,101354.36
2022-11-02T09:41:42.045Z,101347.46
2022-11-02T09:44:20.128Z,101347.91
2022-11-02T09:47:27.833Z,101342.31
2022-11-02T09:49:45.719Z,101342.42
2022-11-02T09:52:25.684Z,101346.98
2022-11-02T09:54:59.951Z,101349.74
2022-11-02T09:57:33.458Z,101355.23
2022-11-02T10:00:06.268Z,101358.98
2022-11-02T10:02:55.040Z,101351.23
2022-11-02T10:05:41.011Z,101350.54
2022-11-02T10:08:36.050Z,101342.91
2022-11-02T10:11:21.358Z,101338.44
2022-11-02T10:14:00.622Z,101336.91
2022-11-02T10:16:37.786Z,101331.30
2022-11-02T10:19:17.381Z,101327.30
2022-11-02T10:21:53.031Z,101323.50
2022-11-02T10:24:33.166Z,101330.81
2022-11-02T10:27:14.444Z,101329.57
2022-11-02T10:29:53.821Z,101326.79
2022-11-02T10:32:26.132Z,101326.78
2022-11-02T10:34:59.247Z,101326.14
2022-11-02T10:37:57.242Z,101327.93
2022-11-02T10:40:43.492Z,101331.83
2022-11-02T10:43:25.508Z,101330.59
2022-11-02T10:46:15.506Z,101325.84
2022-11-02T10:48:54.539Z,101324.48
2022-11-02T10:51:26.478Z,101328.12
2022-11-02T10:53:58.407Z,101329.00
2022-11-02T10:56:34.460Z,101329.35
2022-11-02T10:59:14.573Z,101324.16
2022-11-02T11:02:07.046Z,101322.59
2022-11-02T11:04:39.192Z,101326.80
2022-11-02T11:07:18.106Z,101336.56
2022-11-02T11:09:52.613Z,101335.52
2022-11-02T11:12:30.557Z,101334.46
2022-11-02T11:20:55.671Z,101325.36
2022-11-02T11:23:28.639Z,101323.95
2022-11-02T11:26:03.195Z,101325.43
2022-11-02T11:28:41.375Z,101330.80
2022-11-02T11:31:16.453Z,101330.11
2022-11-02T11:33:53.020Z,101330.54
2022-11-02T11:36:29.409Z,101323.23
2022-11-02T11:39:06.295Z,101320.83
2022-11-02T11:41:42.388Z,101317.57
2022-11-02T11:44:16.538Z,101310.06
2022-11-02T11:46:51.227Z,101303.88
2022-11-02T11:52:32.682Z,101298.36
2022-11-02T11:55:23.123Z,101294.71
2022-11-02T11:58:19.689Z,101291.68
2022-11-02T12:01:10.532Z,101285.86
2022-11-02T12:03:55.496Z,101285.38
2022-11-02T12:06:33.856Z,101284.73
2022-11-02T12:09:13.787Z,101284.35
2022-11-02T12:11:54.717Z,101278.13
2022-11-02T12:14:43.120Z,101272.21
2022-11-02T12:17:39.262Z,101270.69
2022-11-02T12:20:41.129Z,101265.65
2022-11-02T12:23:32.288Z,101260.66
2022-11-02T12:26:19.899Z,101265.30
2022-11-02T12:29:07.533Z,101265.91
2022-11-02T12:31:42.477Z,101265.86
2022-11-02T12:34:36.018Z,101267.21
2022-11-02T12:37:35.823Z,101268.52
2022-11-02T12:43:12.612Z,101266.95
2022-11-02T12:45:53.449Z,101269.61
2022-11-02T12:48:35.392Z,101265.27
2022-11-02T12:51:15.430Z,101265.53
2022-11-02T12:53:55.225Z,101265.02
2022-11-02T12:56:32.844Z,101261.83
2022-11-02T12:59:04.701Z,101262.89
2022-11-02T13:01:41.855Z,101260.09
2022-11-02T13:04:23.265Z,101258.19
2022-11-02T13:07:03.420Z,101252.24
2022-11-02T13:09:39.272Z,101251.29
2022-11-02T13:12:15.813Z,101255.70
2022-11-02T13:14:53.856Z,101257.93
2022-11-02T13:17:41.193Z,101258.89
2022-11-02T13:20:19.797Z,101259.77
2022-11-02T13:22:56.846Z,101261.92
2022-11-02T13:25:37.414Z,101263.98
2022-11-02T13:28:17.633Z,101266.47
2022-11-02T13:30:50.613Z,101264.77
2022-11-02T13:33:29.882Z,101261.36
2022-11-02T13:36:02.280Z,101257.63
2022-11-02T13:38:39.308Z,101259.85
2022-11-02T13:41:29.152Z,101263.08
2022-11-02T13:44:26.023Z,101260.41
2022-11-02T13:47:18.974Z,101266.68
2022-11-02T13:49:56.853Z,101262.58
2022-11-02T13:52:38.247Z,101270.80
2022-11-02T13:55:18.631Z,101268.14
2022-11-02T13:57:54.728Z,101276.48
2022-11-02T14:00:41.960Z,101275.70
2022-11-02T14:03:19.751Z,101275.38
2022-11-02T14:05:55.439Z,101276.64
2022-11-02T14:08:38.889Z,101278.80
2022-11-02T14:11:26.942Z,101283.94
2022-11-02T14:14:26.606Z,101285.79
2022-11-02T14:17:13.258Z,101286.19
2022-11-02T14:20:04.921Z,101288.42
2022-11-02T14:22:39.613Z,101297.86
2022-11-02T14:25:21.515Z,101301.30
2022-11-02T14:27:56.879Z,101305.95
2022-11-02T14:44:24.120Z,101305.98
2022-11-02T14:47:01.977Z,101308.81
2022-11-02T14:49:37.068Z,101307.98
2022-11-02T14:52:18.596Z,101308.31
2022-11-02T14:54:54.042Z,101303.45
2022-11-02T14:57:30.519Z,101303.23
2022-11-02T15:00:05.952Z,101302.78
2022-11-02T15:02:43.430Z,101297.30
2022-11-02T15:05:28.534Z,101296.88
2022-11-02T15:08:04.360Z,101299.77
2022-11-02T15:10:43.883Z,101299.27
2022-11-02T15:13:48.650Z,101306.25
2022-11-02T15:16:42.321Z,101312.59
2022-11-02T15:19:43.817Z,101316.29
2022-11-02T15:22:40.628Z,101316.02
2022-11-02T15:25:21.325Z,101316.98
2022-11-02T15:27:57.388Z,101319.02
2022-11-02T15:30:29.603Z,101321.66
2022-11-02T15:33:05.770Z,101326.20
2022-11-02T15:35:42.674Z,101326.11
2022-11-02T15:38:18.508Z,101325.45
2022-11-02T15:41:05.983Z,101325.95
2022-11-02T15:43:57.282Z,101329.61
2022-11-02T15:46:48.003Z,101337.29
2022-11-02T15:49:41.039Z,101341.73
2022-11-02T15:52:26.916Z,101343.90
2022-11-02T15:55:11.512Z,101346.83
2022-11-02T15:57:53.607Z,101353.48
2022-11-02T16:00:30.936Z,101356.38
2022-11-02T16:03:05.694Z,101357.43
2022-11-02T16:05:51.356Z,101355.23
2022-11-02T16:08:32.694Z,101355.20
2022-11-02T16:11:13.774Z,101358.22
2022-11-02T16:14:07.999Z,101362.29
2022-11-02T16:16:49.389Z,101366.88
2022-11-02T16:19:23.242Z,101369.71
2022-11-02T16:22:00.993Z,101372.98
2022-11-02T16:24:34.540Z,101370.05
2022-11-02T16:27:10.378Z,101370.06
2022-11-02T16:29:42.691Z,101371.01
2022-11-02T16:32:15.482Z,101376.60
2022-11-02T16:34:47.704Z,101379.45
2022-11-02T16:37:21.626Z,101380.48
2022-11-02T16:39:54.006Z,101381.98
2022-11-02T16:42:28.811Z,101381.98
2022-11-02T16:45:04.796Z,101384.16
2022-11-02T16:47:41.872Z,101390.62
2022-11-02T16:50:25.541Z,101393.84
2022-11-02T16:53:01.380Z,101398.11
2022-11-02T16:55:40.299Z,101397.92
2022-11-02T16:58:21.689Z,101400.85
2022-11-02T17:00:59.763Z,101402.48
2022-11-02T17:03:40.117Z,101401.95
2022-11-02T17:06:13.448Z,101400.73
2022-11-02T17:08:51.140Z,101401.14
2022-11-02T17:11:25.220Z,101403.77
2022-11-02T17:14:01.814Z,101404.69
2022-11-02T17:16:36.538Z,101404.17
2022-11-02T17:19:29.421Z,101407.52
2022-11-02T17:22:15.808Z,101408.98
2022-11-02T17:24:48.261Z,101410.43
2022-11-02T17:27:26.830Z,101410.64
2022-11-02T17:29:58.914Z,101410.24
2022-11-02T17:32:31.550Z,101411.71
2022-11-02T17:35:07.381Z,101411.36
2022-11-02T17:37:39.857Z,101413.47
2022-11-02T17:40:14.901Z,101415.30
2022-11-02T17:43:02.523Z,101419.81
2022-11-02T17:45:37.459Z,101425.50
2022-11-02T17:48:10.990Z,101421.59
2022-11-02T17:50:44.380Z,101423.40
2022-11-02T17:53:16.414Z,101426.10
2022-11-02T17:55:48.480Z,101429.20
2022-11-02T17:58:20.415Z,101434.16
2022-11-02T18:00:54.633Z,101432.56
2022-11-02T18:03:31.436Z,101431.00
2022-11-02T18:06:03.886Z,101433.97
2022-11-02T18:08:57.240Z,101435.28
2022-11-02T18:11:29.094Z,101435.91
2022-11-02T18:14:01.101Z,101435.17
2022-11-02T18:16:33.756Z,101441.59
2022-11-02T18:19:05.907Z,101439.77
2022-11-02T18:21:37.952Z,101435.59
2022-11-02T18:24:11.093Z,101436.80
2022-11-02T18:26:45.888Z,101433.92
2022-11-02T18:29:19.089Z,101431.39
2022-11-02T18:31:51.230Z,101431.84
2022-11-02T18:34:23.199Z,101431.44
2022-11-02T18:36:55.062Z,101430.75
2022-11-02T18:39:26.930Z,101428.55
2022-11-02T18:41:58.920Z,101427.02
2022-11-02T18:44:30.851Z,101422.13
2022-11-02T18:47:03.167Z,101422.00
2022-11-02T18:49:35.546Z,101421.47
2022-11-02T18:52:12.597Z,101420.62
2022-11-02T18:54:44.539Z,101413.16
2022-11-02T18:57:16.551Z,101413.45
2022-11-02T18:59:48.637Z,101409.96
2022-11-02T19:02:20.684Z,101412.38
2022-11-02T19:04:53.184Z,101411.43
2022-11-02T19:07:45.530Z,101412.93
2022-11-02T19:10:19.710Z,101418.20
2022-11-02T19:12:51.597Z,101418.69
2022-11-02T19:15:23.590Z,101419.45
2022-11-02T19:17:55.598Z,101421.52
2022-11-02T19:20:27.591Z,101422.27
2022-11-02T19:22:59.478Z,101421.30
2022-11-02T19:25:34.356Z,101421.52
2022-11-02T19:28:07.078Z,101422.55
2022-11-02T19:30:41.144Z,101424.86
2022-11-02T19:33:13.231Z,101423.69
2022-11-02T19:35:55.015Z,101423.46
2022-11-02T19:38:27.679Z,101427.16
2022-11-02T19:41:10.087Z,101429.73
2022-11-02T19:43:43.804Z,101430.14
2022-11-02T19:46:18.335Z,101434.35
2022-11-02T19:48:50.706Z,101428.94
2022-11-02T19:51:24.317Z,101435.80
2022-11-02T19:53:59.324Z,101442.13
2022-11-02T19:56:34.263Z,101449.16
2022-11-02T19:59:15.186Z,101454.34
2022-11-02T20:01:50.740Z,101459.16
2022-11-02T20:04:25.079Z,101458.02
2022-11-02T20:06:58.377Z,101464.05
2022-11-02T20:09:30.877Z,101470.15
2022-11-02T20:12:07.447Z,101476.30
2022-11-02T20:14:39.504Z,101474.20
2022-11-02T20:17:30.080Z,101479.15
2022-11-02T20:20:04.324Z,101488.86
2022-11-02T20:22:38.713Z,101489.14
2022-11-02T20:25:12.324Z,101493.71
2022-11-02T20:27:45.318Z,101490.52
2022-11-02T20:30:22.395Z,101489.31
2022-11-02T20:32:54.526Z,101490.21
2022-11-02T20:35:29.533Z,101495.09
2022-11-02T20:38:04.785Z,101496.34
2022-11-02T20:40:41.105Z,101496.34
2022-11-02T20:43:14.265Z,101500.42
2022-11-02T20:45:46.552Z,101504.14
2022-11-02T20:48:18.886Z,101511.91
2022-11-02T20:50:51.053Z,101509.64
2022-11-02T20:53:23.255Z,101515.11
2022-11-02T20:55:56.138Z,101517.60
2022-11-02T20:58:28.562Z,101519.48
2022-11-02T21:01:01.259Z,101521.92
2022-11-02T21:03:33.488Z,101523.91
2022-11-02T21:06:09.606Z,101520.03
2022-11-02T21:08:43.223Z,101519.48
2022-11-02T21:11:32.803Z,101520.02
2022-11-02T21:14:04.839Z,101517.73
2022-11-02T21:16:40.276Z,101524.19
2022-11-02T21:19:12.105Z,101528.23
2022-11-02T21:21:45.140Z,101534.25
2022-11-02T21:24:22.264Z,101529.84
2022-11-02T21:26:54.356Z,101533.70
2022-11-02T21:29:26.376Z,101532.20
2022-11-02T21:31:58.450Z,101536.41
2022-11-02T21:34:30.312Z,101533.63
2022-11-02T21:37:06.638Z,101534.69
2022-11-02T21:39:41.883Z,101537.67
2022-11-02T21:42:13.816Z,101534.51
2022-11-02T21:44:45.868Z,101538.48
2022-11-02T21:47:17.946Z,101539.36
2022-11-02T21:49:50.034Z,101540.28
2022-11-02T21:52:21.974Z,101540.81
2022-11-02T21:54:56.069Z,101540.55
2022-11-02T21:57:28.088Z,101543.77
2022-11-02T22:00:00.176Z,101543.84
2022-11-02T22:02:35.106Z,101541.27
2022-11-02T22:05:07.871Z,101545.90
2022-11-02T22:07:53.844Z,101546.39
2022-11-02T22:10:26.174Z,101545.89
2022-11-02T22:13:15.796Z,101548.30
2022-11-02T22:15:47.887Z,101546.58
2022-11-02T22:18:20.565Z,101549.13
2022-11-02T22:20:58.519Z,101549.34
2022-11-02T22:23:30.634Z,101551.43
2022-11-02T22:26:05.836Z,101549.08
2022-11-02T22:28:40.466Z,101548.24
2022-11-02T22:31:14.767Z,101552.33
2022-11-02T22:33:47.847Z,101549.94
2022-11-02T22:36:21.914Z,101554.55
2022-11-02T22:38:57.937Z,101553.33
2022-11-02T22:41:31.954Z,101558.05
2022-11-02T22:44:06.307Z,101560.01
2022-11-02T22:46:40.315Z,101566.13
2022-11-02T22:49:14.591Z,101572.77
2022-11-02T22:51:49.131Z,101574.73
2022-11-02T22:54:22.030Z,101578.86
2022-11-02T22:56:58.539Z,101579.78
2022-11-02T22:59:30.614Z,101583.92
2022-11-02T23:02:02.797Z,101587.73
2022-11-02T23:04:34.864Z,101593.98
2022-11-02T23:09:54.775Z,101593.52
2022-11-02T23:12:26.653Z,101598.80
2022-11-02T23:14:58.662Z,101599.17
2022-11-02T23:17:30.724Z,101599.48
2022-11-02T23:20:02.712Z,101601.13
2022-11-02T23:22:53.864Z,101602.70
2022-11-02T23:25:26.144Z,101603.70
2022-11-02T23:28:28.704Z,101602.53
2022-11-02T23:31:18.177Z,101602.67
2022-11-02T23:33:50.742Z,101601.89
2022-11-02T23:36:22.779Z,101604.65
2022-11-02T23:39:12.651Z,101606.27
2022-11-02T23:41:44.873Z,101606.38
2022-11-02T23:44:19.098Z,101609.05
2022-11-02T23:46:55.578Z,101607.89
2022-11-02T23:49:27.655Z,101607.36
2022-11-02T23:52:17.302Z,101605.92
2022-11-02T23:55:06.761Z,101608.98
2022-11-02T23:57:38.657Z,101612.23
